createdAt,value
2019-05-10T00:00:20.300Z,10.00
2019-05-10T00:05:43.249Z,9.90
2019-05-10T00:10:52.824Z,9.80
2019-05-10T00:15:57.654Z,9.70
2019-05-10T00:21:02.782Z,9.60
2019-05-10T00:26:07.786Z,9.50
2019-05-10T00:31:12.554Z,9.40
2019-05-10T00:36:17.384Z,9.30
2019-05-10T00:41:22.144Z,9.20
2019-05-10T00:46:26.986Z,9.10
2019-05-10T00:51:31.830Z,9.00
2019-05-10T00:56:36.678Z,9.00
2019-05-10T01:01:41.524Z,9.00
2019-05-10T01:06:46.969Z,9.00
2019-05-10T01:11:52.308Z,8.90
2019-05-10T01:16:57.733Z,8.90
2019-05-10T01:22:03.159Z,8.80
2019-05-10T01:27:07.995Z,8.80
2019-05-10T01:32:12.938Z,8.70
2019-05-10T01:37:17.695Z,8.70
2019-05-10T01:42:22.539Z,8.80
2019-05-10T01:47:27.288Z,8.80
2019-05-10T01:52:32.125Z,8.80
2019-05-10T01:57:36.949Z,8.90
2019-05-10T02:02:41.808Z,9.00
2019-05-10T02:07:46.638Z,9.00
2019-05-10T02:12:51.490Z,9.10
2019-05-10T02:17:56.336Z,9.10
2019-05-10T02:23:01.202Z,9.20
2019-05-10T02:28:06.042Z,9.20
2019-05-10T02:33:10.881Z,9.20
2019-05-10T02:38:15.708Z,9.30
2019-05-10T02:43:20.556Z,9.30
2019-05-10T02:48:25.394Z,9.30
2019-05-10T02:53:30.225Z,9.20
2019-05-10T02:58:35.068Z,9.10
2019-05-10T03:03:42.916Z,9.00
2019-05-10T03:08:52.265Z,8.90
2019-05-10T03:14:17.835Z,8.80
2019-05-10T03:19:23.563Z,8.90
2019-05-10T03:24:28.565Z,8.90
2019-05-10T03:29:33.430Z,8.90
2019-05-10T03:34:38.248Z,8.90
2019-05-10T03:39:43.069Z,8.90
2019-05-10T03:44:47.924Z,8.90
2019-05-10T03:49:52.769Z,9.00
2019-05-10T03:54:57.618Z,9.00
2019-05-10T04:00:02.449Z,9.00
2019-05-10T04:05:07.886Z,9.10
2019-05-10T04:10:13.839Z,9.20
2019-05-10T04:15:18.688Z,9.30
2019-05-10T04:20:23.519Z,9.40
2019-05-10T04:25:28.423Z,9.50
2019-05-10T04:30:33.253Z,9.50
2019-05-10T04:35:38.083Z,9.40
2019-05-10T04:40:42.922Z,9.40
2019-05-10T04:45:47.762Z,9.50
2019-05-10T04:50:52.584Z,9.40
2019-05-10T04:55:57.440Z,9.30
2019-05-10T05:01:03.539Z,9.30
2019-05-10T05:06:08.373Z,9.20
2019-05-10T05:11:13.216Z,9.30
2019-05-10T05:16:18.122Z,9.30
2019-05-10T05:21:22.973Z,9.30
2019-05-10T05:26:27.665Z,9.30
2019-05-10T05:31:32.507Z,9.40
2019-05-10T05:36:37.260Z,9.50
2019-05-10T05:41:49.284Z,9.60
2019-05-10T05:46:48.677Z,9.70
2019-05-10T05:51:53.518Z,9.80
2019-05-10T05:56:58.277Z,10.00
2019-05-10T06:02:07.421Z,10.20
2019-05-10T06:07:09.504Z,10.20
2019-05-10T06:12:14.596Z,10.30
2019-05-10T06:17:23.778Z,10.40
2019-05-10T06:22:25.879Z,10.40
2019-05-10T06:27:30.654Z,10.40
2019-05-10T06:32:35.503Z,10.30
2019-05-10T06:37:40.361Z,10.30
2019-05-10T06:42:45.311Z,10.50
2019-05-10T06:47:53.284Z,10.80
2019-05-10T06:53:00.494Z,10.80
2019-05-10T06:58:03.427Z,10.90
2019-05-10T07:03:08.264Z,10.90
2019-05-10T07:08:19.726Z,11.10
2019-05-10T07:13:19.549Z,11.40
2019-05-10T07:18:24.401Z,11.70
2019-05-10T07:23:30.178Z,12.00
2019-05-10T07:28:35.305Z,12.40
2019-05-10T07:33:40.316Z,12.70
2019-05-10T07:38:45.176Z,12.90
2019-05-10T07:43:50.138Z,13.00
2019-05-10T07:48:54.843Z,13.50
2019-05-10T07:54:04.537Z,13.80
2019-05-10T07:59:06.356Z,13.80
2019-05-10T08:04:12.985Z,14.10
2019-05-10T08:09:19.228Z,14.90
2019-05-10T08:14:25.460Z,15.30
2019-05-10T08:19:32.814Z,15.40
2019-05-10T08:24:37.082Z,15.40
2019-05-10T08:29:42.906Z,15.80
2019-05-10T08:34:53.060Z,15.90
2019-05-10T08:39:56.033Z,16.50
2019-05-10T08:45:05.450Z,16.80
2019-05-10T08:50:22.530Z,17.10
2019-05-10T08:55:14.375Z,17.00
2019-05-10T09:00:37.143Z,17.40
2019-05-10T09:05:28.936Z,17.50
2019-05-10T09:10:32.409Z,17.80
2019-05-10T09:15:43.273Z,18.00
2019-05-10T09:20:43.909Z,18.40
2019-05-10T09:25:51.712Z,18.50
2019-05-10T09:31:00.670Z,18.70
2019-05-10T09:36:02.958Z,18.40
2019-05-10T09:41:08.057Z,18.70
2019-05-10T09:46:14.137Z,18.90
2019-05-10T09:51:27.955Z,19.10
2019-05-10T09:56:27.609Z,19.40
2019-05-10T10:01:32.518Z,19.90
2019-05-10T10:06:41.800Z,19.90
2019-05-10T10:11:48.084Z,19.80
2019-05-10T10:16:58.203Z,20.30
2019-05-10T10:21:57.654Z,20.20
2019-05-10T10:27:02.672Z,20.20
2019-05-10T10:32:08.020Z,20.70
2019-05-10T10:37:14.691Z,20.50
2019-05-10T10:42:19.601Z,20.80
2019-05-10T10:47:30.445Z,21.00
2019-05-10T10:52:30.959Z,21.20
2019-05-10T10:57:37.399Z,21.30
2019-05-10T11:02:46.768Z,20.70
2019-05-10T11:07:51.044Z,21.00
2019-05-10T11:12:56.278Z,21.50
2019-05-10T11:18:01.823Z,21.40
2019-05-10T11:23:06.596Z,20.70
2019-05-10T11:28:12.020Z,20.80
2019-05-10T11:33:33.659Z,21.30
2019-05-10T11:38:37.410Z,21.60
2019-05-10T11:43:43.586Z,21.60
2019-05-10T11:48:50.734Z,21.60
2019-05-10T11:53:59.513Z,21.60
2019-05-10T11:59:04.737Z,21.90
2019-05-10T12:04:13.116Z,21.90
2019-05-10T12:09:14.227Z,21.70
2019-05-10T12:14:36.729Z,21.10
2019-05-10T12:19:47.875Z,21.10
2019-05-10T12:25:14.144Z,21.50
2019-05-10T12:29:59.526Z,21.90
2019-05-10T12:35:01.433Z,22.60
2019-05-10T12:40:11.865Z,22.50
2019-05-10T12:45:14.530Z,21.70
2019-05-10T12:50:20.896Z,20.90
2019-05-10T12:55:25.740Z,20.70
2019-05-10T13:00:30.749Z,20.40
2019-05-10T13:05:51.080Z,20.30
2019-05-10T13:10:43.293Z,20.90
2019-05-10T13:15:48.747Z,21.10
2019-05-10T13:20:53.620Z,21.30
2019-05-10T13:25:58.554Z,21.60
2019-05-10T13:31:05.696Z,21.70
2019-05-10T13:36:09.885Z,22.30
2019-05-10T13:41:17.740Z,22.80
2019-05-10T13:46:21.321Z,22.60
2019-05-10T13:51:26.187Z,22.70
2019-05-10T13:56:30.973Z,23.20
2019-05-10T14:01:35.940Z,23.10
2019-05-10T14:06:40.821Z,22.40
2019-05-10T14:11:46.947Z,21.80
2019-05-10T14:16:52.356Z,21.10
2019-05-10T14:21:57.180Z,20.40
2019-05-10T14:27:01.947Z,20.10
2019-05-10T14:32:10.421Z,20.00
2019-05-10T14:37:19.788Z,20.00
2019-05-10T14:42:30.347Z,20.00
2019-05-10T14:47:28.586Z,19.90
2019-05-10T14:52:33.426Z,19.10
2019-05-10T14:57:38.450Z,18.30
2019-05-10T15:02:43.542Z,17.70
2019-05-10T15:07:51.057Z,17.40
2019-05-10T15:12:55.109Z,17.20
2019-05-10T15:18:01.854Z,16.90
2019-05-10T15:23:06.668Z,17.30
2019-05-10T15:28:11.513Z,17.60
2019-05-10T15:33:17.844Z,17.90
2019-05-10T15:38:22.708Z,18.00
2019-05-10T15:43:27.537Z,18.20
2019-05-10T15:48:36.517Z,18.30
2019-05-10T15:53:39.104Z,18.00
2019-05-10T15:58:43.917Z,18.00
2019-05-10T16:03:48.674Z,17.80
2019-05-10T16:08:54.048Z,17.80
2019-05-10T16:14:00.150Z,17.50
2019-05-10T16:19:05.370Z,17.30
2019-05-10T16:24:13.387Z,17.20
2019-05-10T16:29:16.656Z,17.00
2019-05-10T16:34:26.504Z,17.00
2019-05-10T16:39:27.949Z,16.90
2019-05-10T16:44:32.823Z,16.90
2019-05-10T16:49:37.644Z,17.00
2019-05-10T16:54:44.316Z,17.00
2019-05-10T16:59:49.443Z,16.90
2019-05-10T17:04:54.614Z,16.60
2019-05-10T17:09:59.631Z,16.60
2019-05-10T17:15:05.434Z,16.50
2019-05-10T17:20:15.859Z,16.30
2019-05-10T17:25:17.854Z,16.30
2019-05-10T17:30:27.601Z,16.10
2019-05-10T17:35:29.266Z,16.20
2019-05-10T17:40:34.304Z,16.10
2019-05-10T17:45:40.512Z,16.00
2019-05-10T17:50:45.996Z,16.10
2019-05-10T17:55:56.482Z,16.10
2019-05-10T18:00:57.677Z,15.90
2019-05-10T18:06:02.713Z,16.00
2019-05-10T18:11:07.576Z,15.90
2019-05-10T18:16:12.434Z,15.80
2019-05-10T18:21:21.760Z,15.70
2019-05-10T18:26:23.769Z,15.70
2019-05-10T18:31:28.710Z,15.70
2019-05-10T18:36:50.499Z,15.60
2019-05-10T18:41:50.288Z,15.50
2019-05-10T18:46:56.615Z,15.40
2019-05-10T18:52:04.547Z,15.30
2019-05-10T18:57:12.333Z,15.10
2019-05-10T19:02:17.696Z,14.80
2019-05-10T19:07:20.752Z,14.60
2019-05-10T19:12:26.070Z,14.40
2019-05-10T19:17:31.279Z,14.30
2019-05-10T19:22:41.336Z,14.30
2019-05-10T19:27:44.151Z,14.20
2019-05-10T19:32:51.127Z,14.10
2019-05-10T19:37:55.740Z,14.00
2019-05-10T19:43:00.582Z,13.90
2019-05-10T19:48:06.017Z,13.80
2019-05-10T19:53:11.351Z,13.70
2019-05-10T19:58:16.181Z,13.70
2019-05-10T20:03:20.951Z,13.70
2019-05-10T20:08:25.784Z,13.60
2019-05-10T20:13:30.541Z,13.60
2019-05-10T20:18:35.460Z,13.50
2019-05-10T20:23:40.295Z,13.40
2019-05-10T20:28:45.146Z,13.40
2019-05-10T20:33:50.113Z,13.30
2019-05-10T20:38:54.951Z,13.40
2019-05-10T20:43:59.798Z,13.40
2019-05-10T20:49:04.669Z,13.40
2019-05-10T20:54:10.115Z,13.30
2019-05-10T20:59:14.801Z,13.30
2019-05-10T21:04:19.524Z,13.30
2019-05-10T21:09:24.333Z,13.10
2019-05-10T21:14:29.133Z,13.10
2019-05-10T21:19:34.059Z,13.20
2019-05-10T21:24:38.941Z,13.10
2019-05-10T21:29:43.782Z,13.10
2019-05-10T21:34:48.660Z,13.00
2019-05-10T21:39:53.530Z,13.00
2019-05-10T21:44:58.329Z,12.90
2019-05-10T21:50:03.589Z,12.90
2019-05-10T21:55:21.055Z,12.90
2019-05-10T22:00:27.892Z,12.80
2019-05-10T22:05:32.713Z,12.80
2019-05-10T22:10:37.562Z,12.80
2019-05-10T22:15:42.407Z,12.70
2019-05-10T22:20:47.333Z,12.70
2019-05-10T22:25:52.088Z,12.60
2019-05-10T22:30:56.934Z,12.60
2019-05-10T22:36:01.784Z,12.60
2019-05-10T22:41:06.541Z,12.60
2019-05-10T22:46:11.305Z,12.60
2019-05-10T22:51:16.145Z,12.50
2019-05-10T22:56:20.978Z,12.50
2019-05-10T23:01:25.779Z,12.40
2019-05-10T23:06:30.642Z,12.40
2019-05-10T23:11:35.466Z,12.40
2019-05-10T23:16:40.267Z,12.40
2019-05-10T23:21:45.286Z,12.40
2019-05-10T23:26:50.186Z,12.40
2019-05-10T23:31:55.040Z,12.30
2019-05-10T23:36:59.916Z,12.30
2019-05-10T23:42:04.808Z,12.20
2019-05-10T23:47:10.201Z,12.10
2019-05-10T23:52:15.018Z,12.10
2019-05-10T23:57:19.810Z,12.10
